Time;durP1;ratioP1;P1;durP2;ratioP2;P2;SDS_P1;SDS_P2;PMS_P1;PMS_P2;Temp;Humidity;BMP_temperature;BMP_pressure;BME280_temperature;BME280_humidity;BME280_pressure;Samples;Min_cycle;Max_cycle;Signal;HPM_P1;HPM_P2
2023/01/26 00:01:17;;;;;;;137.15;68.72;;;;;;;-2.82;100.00;102395.91;6210598;23;20011;-86
2023/01/26 00:03:42;;;;;;;135.35;67.03;;;;;;;-2.80;100.00;102386.44;6211383;23;20011;-86
2023/01/26 00:06:10;;;;;;;129.60;68.03;;;;;;;-2.85;100.00;102401.03;6209894;23;20001;-86
2023/01/26 00:08:36;;;;;;;127.07;67.90;;;;;;;-2.81;100.00;102394.19;6208951;23;20476;-86
2023/01/26 00:11:04;;;;;;;134.18;66.72;;;;;;;-2.82;100.00;102382.00;6209971;23;20071;-86
2023/01/26 00:13:29;;;;;;;128.55;66.43;;;;;;;-2.89;100.00;102370.50;6209906;23;20087;-86
2023/01/26 00:15:54;;;;;;;124.95;66.25;;;;;;;-2.85;100.00;102380.19;6208744;23;20043;-86
2023/01/26 00:18:20;;;;;;;123.57;65.45;;;;;;;-2.85;100.00;102376.69;6207366;23;20004;-86
2023/01/26 00:20:45;;;;;;;130.30;66.20;;;;;;;-2.84;100.00;102375.88;6208767;23;20039;-86
2023/01/26 00:23:10;;;;;;;126.22;65.78;;;;;;;-2.83;100.00;102367.22;6207836;23;20003;-87
2023/01/26 00:25:41;;;;;;;130.00;67.05;;;;;;;-2.82;100.00;102363.78;6208341;23;20044;-87
2023/01/26 00:28:07;;;;;;;126.05;64.15;;;;;;;-2.79;100.00;102366.47;6219900;23;20011;-86
2023/01/26 00:30:32;;;;;;;120.72;61.35;;;;;;;-2.79;100.00;102361.25;6229764;23;20040;-86
2023/01/26 00:32:57;;;;;;;118.78;62.88;;;;;;;-2.80;100.00;102354.25;6230776;23;20009;-85
2023/01/26 00:35:23;;;;;;;119.88;63.10;;;;;;;-2.79;100.00;102361.25;6232181;23;20012;-86
2023/01/26 00:37:48;;;;;;;120.32;63.47;;;;;;;-2.83;100.00;102351.59;6222420;23;20469;-86
2023/01/26 00:40:14;;;;;;;120.82;63.22;;;;;;;-2.80;100.00;102349.97;6208223;23;20050;-86
2023/01/26 00:42:39;;;;;;;126.03;64.15;;;;;;;-2.84;100.00;102342.88;6207888;23;20032;-86
2023/01/26 00:45:05;;;;;;;123.75;63.97;;;;;;;-2.80;100.00;102351.66;6209433;23;20005;-85
2023/01/26 00:47:30;;;;;;;124.90;65.10;;;;;;;-2.81;100.00;102347.28;6209744;23;20005;-87
2023/01/26 00:49:55;;;;;;;118.57;61.78;;;;;;;-2.80;100.00;102338.63;6209767;23;20016;-85
2023/01/26 00:52:21;;;;;;;119.88;62.40;;;;;;;-2.78;100.00;102337.84;6209719;23;20012;-86
2023/01/26 00:54:46;;;;;;;121.55;62.53;;;;;;;-2.75;100.00;102342.25;6210654;23;20032;-87
2023/01/26 00:57:11;;;;;;;122.03;62.47;;;;;;;-2.78;100.00;102331.75;6181400;23;20007;-85
2023/01/26 00:59:36;;;;;;;119.05;61.30;;;;;;;-2.77;100.00;102334.38;6207749;23;20008;-85
2023/01/26 01:02:02;;;;;;;121.18;62.78;;;;;;;-2.79;100.00;102325.66;6207564;23;20151;-85
2023/01/26 01:04:29;;;;;;;125.35;63.95;;;;;;;-2.76;100.00;102328.34;6207091;23;20100;-86
2023/01/26 01:06:56;;;;;;;120.35;62.28;;;;;;;-2.77;100.00;102315.25;6206055;23;20009;-86
2023/01/26 01:09:21;;;;;;;116.97;61.72;;;;;;;-2.71;100.00;102317.16;6206018;23;20225;-85
2023/01/26 01:11:47;;;;;;;118.75;60.78;;;;;;;-2.70;100.00;102316.31;6207932;23;20038;-86
2023/01/26 01:14:12;;;;;;;122.97;61.03;;;;;;;-2.78;100.00;102295.25;6209908;23;20012;-85
2023/01/26 01:16:39;;;;;;;119.68;60.97;;;;;;;-2.69;100.00;102318.09;6209775;23;20224;-86
2023/01/26 01:19:04;;;;;;;116.53;60.17;;;;;;;-2.76;100.00;102307.50;6206544;23;20000;-86
2023/01/26 01:21:31;;;;;;;116.20;61.20;;;;;;;-2.72;100.00;102308.44;6229888;23;20001;-86
2023/01/26 01:23:56;;;;;;;115.75;59.83;;;;;;;-2.73;100.00;102306.69;6236977;23;20023;-86
2023/01/26 01:26:21;;;;;;;114.53;59.13;;;;;;;-2.67;100.00;102298.16;6236961;23;20218;-86
2023/01/26 01:28:47;;;;;;;116.97;60.42;;;;;;;-2.65;100.00;102312.09;6235423;23;20051;-86
2023/01/26 01:31:14;;;;;;;117.18;61.17;;;;;;;-2.64;100.00;102306.03;6236350;23;20012;-86
2023/01/26 01:33:40;;;;;;;115.93;60.40;;;;;;;-2.65;100.00;102297.34;6223992;23;20442;-86
2023/01/26 01:36:09;;;;;;;116.43;59.80;;;;;;;-2.64;100.00;102309.53;6211860;23;20004;-87
2023/01/26 01:38:35;;;;;;;117.15;60.30;;;;;;;-2.63;100.00;102311.31;6213155;23;20429;-86
2023/01/26 01:41:00;;;;;;;107.40;58.20;;;;;;;-2.69;100.00;102308.53;6212925;23;20004;-87
2023/01/26 01:43:26;;;;;;;116.07;59.78;;;;;;;-2.63;100.00;102302.63;6211238;23;20000;-86
2023/01/26 01:45:53;;;;;;;106.60;56.08;;;;;;;-2.71;100.00;102299.81;6221940;23;20091;-86
2023/01/26 01:48:35;;;;;;;110.95;58.95;;;;;;;-2.66;100.00;102300.81;6237094;23;20027;-87
2023/01/26 01:51:06;;;;;;;111.25;57.80;;;;;;;-2.72;100.00;102300.63;6236449;23;20078;-86
2023/01/26 01:53:36;;;;;;;109.35;57.25;;;;;;;-2.68;100.00;102307.69;6237433;23;19993;-86
2023/01/26 01:56:08;;;;;;;111.90;57.95;;;;;;;-2.69;100.00;102305.03;6238473;23;20045;-86
2023/01/26 01:58:38;;;;;;;115.90;59.67;;;;;;;-2.66;100.00;102292.97;6237473;23;20007;-86
2023/01/26 02:01:03;;;;;;;107.95;58.47;;;;;;;-2.74;100.00;102291.03;6212427;23;20011;-86
2023/01/26 02:03:31;;;;;;;114.45;60.10;;;;;;;-2.69;100.00;102300.72;6212056;23;20031;-85
2023/01/26 02:05:56;;;;;;;111.32;57.63;;;;;;;-2.68;100.00;102291.16;6212729;23;20062;-86
2023/01/26 02:08:28;;;;;;;102.95;55.53;;;;;;;-2.67;100.00;102292.97;6211908;23;20419;-86
2023/01/26 02:10:57;;;;;;;111.68;58.03;;;;;;;-2.69;100.00;102302.44;6212598;23;20016;-86
2023/01/26 02:13:23;;;;;;;113.78;60.40;;;;;;;-2.72;100.00;102295.41;6211825;23;20083;-87
2023/01/26 02:15:50;;;;;;;112.75;58.05;;;;;;;-2.73;100.00;102288.44;6211706;23;20013;-87
2023/01/26 02:18:16;;;;;;;110.18;57.65;;;;;;;-2.74;100.00;102288.41;6210221;23;20079;-86
2023/01/26 02:20:49;;;;;;;107.40;55.50;;;;;;;-2.73;100.00;102284.97;6210600;23;20082;-86
2023/01/26 02:23:30;;;;;;;108.25;54.22;;;;;;;-2.70;100.00;102296.34;6209540;23;20050;-86
2023/01/26 02:25:58;;;;;;;106.20;56.45;;;;;;;-2.68;100.00;102296.38;6181904;23;20086;-86
2023/01/26 02:28:26;;;;;;;109.63;55.17;;;;;;;-2.67;100.00;102298.16;6207074;23;19996;-86
2023/01/26 02:30:53;;;;;;;108.18;56.33;;;;;;;-2.67;100.00;102278.19;6209202;23;20032;-86
2023/01/26 02:33:22;;;;;;;105.75;54.25;;;;;;;-2.67;100.00;102283.41;6208290;23;20004;-86
2023/01/26 02:35:47;;;;;;;103.57;55.22;;;;;;;-2.63;100.00;102282.66;6207652;23;20088;-87
2023/01/26 02:38:13;;;;;;;103.55;53.72;;;;;;;-2.65;100.00;102286.03;6207025;23;20031;-87
2023/01/26 02:40:53;;;;;;;104.35;54.92;;;;;;;-2.68;100.00;102276.41;6209057;23;20099;-87
2023/01/26 02:43:18;;;;;;;107.57;55.88;;;;;;;-2.60;100.00;102285.31;6208103;23;20076;-86
2023/01/26 02:45:44;;;;;;;101.03;53.70;;;;;;;-2.61;100.00;102277.47;6181770;23;20040;-87
2023/01/26 02:48:09;;;;;;;109.32;54.78;;;;;;;-2.64;100.00;102266.94;6180971;23;20013;-88
2023/01/26 02:50:34;;;;;;;109.47;55.58;;;;;;;-2.61;100.00;102272.25;6181084;23;20661;-86
2023/01/26 02:53:00;;;;;;;107.97;55.55;;;;;;;-2.63;100.00;102272.22;6208688;23;20004;-87
2023/01/26 02:55:27;;;;;;;109.00;55.85;;;;;;;-2.61;100.00;102267.03;6207369;23;20051;-87
2023/01/26 02:57:55;;;;;;;109.07;56.53;;;;;;;-2.57;100.00;102272.38;6207051;23;20104;-87
2023/01/26 03:00:29;;;;;;;106.35;54.42;;;;;;;-2.55;100.00;102272.38;6207398;23;20084;-87
2023/01/26 03:02:57;;;;;;;106.20;52.83;;;;;;;-2.51;100.00;102276.84;6207231;23;20387;-87
2023/01/26 03:05:22;;;;;;;105.38;53.15;;;;;;;-2.52;100.00;102278.56;6205904;23;20092;-86
2023/01/26 03:07:48;;;;;;;104.82;53.25;;;;;;;-2.52;100.00;102277.69;6207629;23;20517;-86
2023/01/26 03:10:15;;;;;;;102.57;52.97;;;;;;;-2.51;100.00;102271.63;6208115;23;20013;-87
2023/01/26 03:12:40;;;;;;;102.05;53.85;;;;;;;-2.50;100.00;102265.59;6208535;23;20005;-87
2023/01/26 03:27:25;;;;;;;106.70;54.30;;;;;;;-2.47;100.00;102264.78;6206783;23;20015;-87
2023/01/26 03:28:53;;;;;;;102.97;53.22;;;;;;;-2.48;100.00;102252.59;6085799;23;20093;-86
2023/01/26 03:31:18;;;;;;;104.60;54.92;;;;;;;-2.45;100.00;102260.50;6083567;23;20019;-86
2023/01/26 03:33:44;;;;;;;106.55;53.90;;;;;;;-2.46;100.00;102261.34;6060569;23;20021;-86
2023/01/26 03:36:09;;;;;;;100.78;51.95;;;;;;;-2.47;100.00;102260.44;6084385;23;20018;-85
2023/01/26 03:38:34;;;;;;;100.43;52.25;;;;;;;-2.50;100.00;102257.78;6087597;23;20007;-86
2023/01/26 03:57:23;;;;;;;;;;;;;;;-2.40;100.00;102238.91;6060450;23;20066;-86
2023/01/26 03:59:49;;;;;;;98.20;52.05;;;;;;;-2.42;100.00;102240.59;6097651;23;19912;-86
2023/01/26 04:10:26;;;;;;;99.75;52.00;;;;;;;-2.40;100.00;102241.50;6236034;23;19914;-87
2023/01/26 04:23:48;;;;;;;94.53;48.83;;;;;;;-2.39;100.00;102235.44;6212280;23;20023;-86
2023/01/26 04:26:15;;;;;;;95.05;47.85;;;;;;;-2.33;100.00;102243.44;6210280;23;20028;-85
2023/01/26 04:28:40;;;;;;;99.32;48.30;;;;;;;-2.33;100.00;102242.56;6210006;23;20000;-87
2023/01/26 04:31:06;;;;;;;99.07;48.50;;;;;;;-2.28;100.00;102248.75;6209555;23;20108;-86
2023/01/26 04:33:32;;;;;;;96.22;47.20;;;;;;;-2.26;100.00;102247.97;6209514;23;20004;-86
2023/01/26 04:36:02;;;;;;;95.32;46.70;;;;;;;-2.21;100.00;102257.63;6206218;23;20008;-87
2023/01/26 04:38:27;;;;;;;87.78;44.83;;;;;;;-2.20;100.00;102249.81;6218398;23;20326;-86
2023/01/26 04:40:54;;;;;;;96.55;46.15;;;;;;;-2.22;100.00;102242.78;6219625;23;20016;-86
2023/01/26 04:43:19;;;;;;;97.75;47.13;;;;;;;-2.12;100.00;102247.41;6193582;23;20008;-85
2023/01/26 04:45:56;;;;;;;91.40;44.30;;;;;;;-2.10;100.00;102246.56;6218180;23;20079;-86
2023/01/26 04:48:22;;;;;;;96.13;44.70;;;;;;;-2.10;100.00;102238.75;6218282;23;19996;-85
2023/01/26 04:50:53;;;;;;;87.78;42.97;;;;;;;-2.08;100.00;102234.47;6217630;23;20329;-85
2023/01/26 04:53:18;;;;;;;89.93;42.45;;;;;;;-2.05;100.00;102242.38;6220638;23;20004;-85
2023/01/26 04:55:44;;;;;;;86.47;42.22;;;;;;;-2.06;100.00;102231.88;6216975;23;20048;-84
2023/01/26 04:58:09;;;;;;;80.63;41.88;;;;;;;-2.08;100.00;102236.19;6217301;23;20012;-85
2023/01/26 05:00:34;;;;;;;78.40;39.95;;;;;;;-2.07;100.00;102231.00;6215830;23;20009;-85
2023/01/26 05:02:59;;;;;;;79.07;38.47;;;;;;;-2.10;100.00;102228.31;6209615;23;20000;-85
2023/01/26 05:05:25;;;;;;;79.78;39.55;;;;;;;-2.06;100.00;102235.34;6208609;23;20084;-85
2023/01/26 05:07:52;;;;;;;81.45;39.60;;;;;;;-2.06;100.00;102231.88;6208684;23;20005;-85
2023/01/26 05:10:17;;;;;;;84.20;39.50;;;;;;;-2.04;100.00;102233.69;6208366;23;20350;-85
2023/01/26 05:12:42;;;;;;;80.18;39.40;;;;;;;-1.98;100.00;102239.88;6181554;23;20008;-84
2023/01/26 05:15:08;;;;;;;76.18;38.10;;;;;;;-2.07;100.00;102222.28;6207703;23;20040;-84
2023/01/26 05:17:35;;;;;;;75.15;38.53;;;;;;;-1.99;100.00;102232.91;6207695;23;20019;-84
2023/01/26 05:20:00;;;;;;;70.45;35.00;;;;;;;-1.97;100.00;102236.41;6207199;23;20001;-84
2023/01/26 05:22:25;;;;;;;70.90;35.55;;;;;;;-2.00;100.00;102237.25;6207725;23;20000;-84
2023/01/26 05:24:51;;;;;;;70.63;35.10;;;;;;;-2.00;100.00;102232.03;6208699;23;20427;-84
2023/01/26 05:27:22;;;;;;;68.22;34.15;;;;;;;-1.97;100.00;102241.63;6207339;23;20043;-84
2023/01/26 05:29:48;;;;;;;72.70;36.45;;;;;;;-2.02;100.00;102229.38;6209315;23;20518;-84
2023/01/26 05:32:13;;;;;;;71.05;34.75;;;;;;;-1.96;100.00;102240.81;6206743;23;20769;-83
2023/01/26 05:34:39;;;;;;;70.20;34.65;;;;;;;-2.01;100.00;102238.97;6234398;23;19999;-84
2023/01/26 05:37:04;;;;;;;68.20;33.33;;;;;;;-1.94;100.00;102246.94;6232360;23;20164;-84
2023/01/26 05:39:29;;;;;;;68.70;35.53;;;;;;;-1.97;100.00;102246.84;6209617;23;20001;-84
2023/01/26 05:41:55;;;;;;;70.00;35.05;;;;;;;-1.96;100.00;102246.03;6206844;23;20005;-84
2023/01/26 05:44:22;;;;;;;71.85;35.38;;;;;;;-1.97;100.00;102249.47;6209080;23;20442;-83
2023/01/26 05:46:47;;;;;;;69.47;34.83;;;;;;;-1.96;100.00;102246.03;6209060;23;20001;-83
2023/01/26 05:49:12;;;;;;;66.18;32.22;;;;;;;-1.93;100.00;102241.75;6210188;23;20007;-84
2023/01/26 05:51:38;;;;;;;65.53;32.63;;;;;;;-1.95;100.00;102237.34;6208683;23;20012;-83
2023/01/26 05:54:03;;;;;;;65.88;31.05;;;;;;;-1.92;100.00;102245.22;6206977;23;20051;-84
2023/01/26 05:56:28;;;;;;;65.85;31.88;;;;;;;-1.92;100.00;102243.53;6205310;23;20012;-84
2023/01/26 05:58:54;;;;;;;60.53;30.90;;;;;;;-1.95;100.00;102239.97;6205549;23;20063;-84
2023/01/26 06:01:19;;;;;;;66.90;32.60;;;;;;;-1.90;100.00;102251.38;6206704;23;20005;-84
2023/01/26 06:03:45;;;;;;;61.33;32.05;;;;;;;-1.92;100.00;102250.44;6214138;23;20029;-84
2023/01/26 06:06:10;;;;;;;65.22;33.25;;;;;;;-1.91;100.00;102247.00;6190420;23;20500;-83
2023/01/26 06:08:35;;;;;;;63.63;32.15;;;;;;;-1.89;100.00;102246.19;6219029;23;20001;-84
2023/01/26 06:11:00;;;;;;;70.03;33.92;;;;;;;-1.91;100.00;102240.06;6217522;23;20127;-85
2023/01/26 06:13:26;;;;;;;67.43;32.60;;;;;;;-1.92;100.00;102243.53;6217603;23;20442;-83
2023/01/26 06:15:51;;;;;;;68.25;33.47;;;;;;;-1.88;100.00;102257.50;6187709;23;20005;-84
2023/01/26 06:18:16;;;;;;;65.95;32.17;;;;;;;-1.88;100.00;102254.88;6217428;23;20132;-85
2023/01/26 06:20:42;;;;;;;63.13;32.53;;;;;;;-1.91;100.00;102257.44;6230197;23;20020;-83
2023/01/26 06:23:10;;;;;;;64.15;32.60;;;;;;;-1.91;100.00;102257.44;6210941;23;19997;-84
2023/01/26 06:25:38;;;;;;;68.70;32.50;;;;;;;-1.87;100.00;102262.78;6211085;23;20019;-84
2023/01/26 06:28:04;;;;;;;67.05;33.20;;;;;;;-1.87;100.00;102261.91;6236762;23;20057;-84
2023/01/26 06:30:29;;;;;;;73.22;34.40;;;;;;;-1.87;100.00;102257.56;6235897;23;20013;-83
2023/01/26 06:32:54;;;;;;;73.07;34.05;;;;;;;-1.86;100.00;102255.81;6234275;23;20000;-85
2023/01/26 06:35:20;;;;;;;72.75;33.75;;;;;;;-1.95;100.00;102240.84;6221591;23;20023;-84
2023/01/26 06:37:48;;;;;;;69.53;34.95;;;;;;;-1.89;100.00;102247.91;6221476;23;20001;-84
2023/01/26 06:40:14;;;;;;;68.55;32.53;;;;;;;-1.87;100.00;102243.63;6221174;23;20043;-83
2023/01/26 06:42:45;;;;;;;69.70;34.33;;;;;;;-1.85;100.00;102257.56;6221074;23;20009;-84
2023/01/26 06:45:10;;;;;;;69.15;34.28;;;;;;;-1.82;100.00;102262.88;6228000;23;20004;-84
2023/01/26 06:47:35;;;;;;;69.68;33.15;;;;;;;-1.85;100.00;102262.78;6237537;23;20052;-84
2023/01/26 06:50:01;;;;;;;72.00;33.58;;;;;;;-1.82;100.00;102270.69;6237375;23;20028;-84
2023/01/26 06:52:30;;;;;;;70.47;33.92;;;;;;;-1.83;100.00;102267.22;6236610;23;20468;-85
2023/01/26 06:54:58;;;;;;;74.22;33.97;;;;;;;-1.81;100.00;102272.47;6206543;23;20035;-85
2023/01/26 06:57:23;;;;;;;68.72;31.75;;;;;;;-1.80;100.00;102269.00;6216233;23;20487;-84
2023/01/26 06:59:49;;;;;;;65.50;31.77;;;;;;;-1.81;100.00;102268.13;6215429;23;20028;-83
2023/01/26 07:02:20;;;;;;;74.97;32.97;;;;;;;-1.78;100.00;102270.81;6213144;23;20423;-84
2023/01/26 07:04:53;;;;;;;67.28;31.98;;;;;;;-1.78;100.00;102267.31;6228420;23;20001;-90
2023/01/26 07:07:18;;;;;;;70.40;31.05;;;;;;;-1.87;100.00;102252.34;6221278;23;20012;-91
2023/01/26 07:09:43;;;;;;;67.18;30.55;;;;;;;-1.77;100.00;102269.94;6220637;23;20018;-85
2023/01/26 07:12:09;;;;;;;68.53;32.33;;;;;;;-1.77;100.00;102266.47;6221865;23;20031;-84
2023/01/26 07:14:34;;;;;;;71.85;32.40;;;;;;;-1.77;100.00;102266.47;6218164;23;20011;-85
2023/01/26 07:17:00;;;;;;;72.18;31.98;;;;;;;-1.80;100.00;102269.00;6216647;23;20098;-85
2023/01/26 07:19:25;;;;;;;62.20;29.83;;;;;;;-1.77;100.00;102266.47;6218475;23;20004;-84
2023/01/26 07:21:53;;;;;;;69.78;30.73;;;;;;;-1.74;100.00;102266.53;6193308;23;20634;-84
2023/01/26 07:24:20;;;;;;;68.13;30.45;;;;;;;-1.76;100.00;102271.75;6218847;23;20011;-85
2023/01/26 07:26:45;;;;;;;69.25;30.92;;;;;;;-1.76;100.00;102274.34;6191664;23;20000;-84
2023/01/26 07:29:11;;;;;;;68.28;30.27;;;;;;;-1.74;100.00;102276.97;6218775;23;20003;-84
2023/01/26 07:31:36;;;;;;;68.22;30.10;;;;;;;-1.73;100.00;102278.72;6219391;23;20012;-84
2023/01/26 07:34:02;;;;;;;77.38;36.35;;;;;;;-1.73;100.00;102283.94;6219102;23;20330;-84
2023/01/26 07:36:27;;;;;;;71.35;31.35;;;;;;;-1.71;100.00;102281.38;6217839;23;20005;-83
2023/01/26 07:38:53;;;;;;;68.95;30.17;;;;;;;-1.70;100.00;102293.59;6230401;23;20008;-83
2023/01/26 07:41:18;;;;;;;71.03;31.10;;;;;;;-1.73;100.00;102285.69;6237204;23;20015;-82
2023/01/26 07:43:43;;;;;;;73.63;31.85;;;;;;;-1.69;100.00;102296.22;6236915;23;20126;-84
2023/01/26 07:46:11;;;;;;;73.30;30.98;;;;;;;-1.69;100.00;102290.13;6216566;23;20011;-84
2023/01/26 07:48:37;;;;;;;75.57;31.85;;;;;;;-1.69;100.00;102296.22;6215100;23;20431;-83
2023/01/26 07:51:03;;;;;;;72.72;32.05;;;;;;;-1.68;100.00;102302.31;6215734;23;20026;-83
2023/01/26 07:53:32;;;;;;;68.97;31.52;;;;;;;-1.69;100.00;102301.44;6216382;23;20403;-83
2023/01/26 07:56:12;;;;;;;73.32;31.35;;;;;;;-1.70;100.00;102304.91;6216627;23;20019;-83
2023/01/26 07:58:39;;;;;;;74.32;31.45;;;;;;;-1.72;100.00;102293.53;6216453;23;20016;-84
2023/01/26 08:01:14;;;;;;;68.40;31.10;;;;;;;-1.73;100.00;102293.53;6188522;23;20028;-83
2023/01/26 08:03:40;;;;;;;77.68;32.40;;;;;;;-1.68;100.00;102308.44;6215579;23;20012;-84
2023/01/26 08:06:07;;;;;;;77.57;32.42;;;;;;;-1.70;100.00;102302.31;6216157;23;20083;-83
2023/01/26 08:08:33;;;;;;;82.50;32.85;;;;;;;-1.71;100.00;102289.19;6189338;23;20008;-84
2023/01/26 08:11:02;;;;;;;73.18;32.03;;;;;;;-1.67;100.00;102304.09;6190340;23;20017;-83
2023/01/26 08:13:29;;;;;;;77.43;32.97;;;;;;;-1.69;100.00;102303.19;6217250;23;20004;-84
2023/01/26 08:15:59;;;;;;;78.45;32.78;;;;;;;-1.65;100.00;102311.13;6215761;23;20050;-85
2023/01/26 08:18:24;;;;;;;84.57;36.03;;;;;;;-1.69;100.00;102295.34;6218356;23;20020;-85
2023/01/26 08:20:53;;;;;;;83.53;33.25;;;;;;;-1.62;100.00;102307.72;6217912;23;20009;-85
2023/01/26 08:23:19;;;;;;;85.05;33.50;;;;;;;-1.61;100.00;102302.50;6218884;23;20012;-84
2023/01/26 08:25:44;;;;;;;82.18;32.90;;;;;;;-1.59;100.00;102308.66;6218976;23;20089;-84
2023/01/26 08:28:10;;;;;;;80.47;32.70;;;;;;;-1.59;100.00;102308.66;6230735;23;19985;-84
2023/01/26 08:30:38;;;;;;;84.38;33.70;;;;;;;-1.56;100.00;102302.59;6237558;23;20004;-84
2023/01/26 08:33:03;;;;;;;85.40;33.42;;;;;;;-1.55;100.00;102313.09;6211007;23;20004;-84
2023/01/26 08:35:30;;;;;;;85.63;34.00;;;;;;;-1.57;100.00;102308.69;6205489;23;20004;-84
2023/01/26 08:37:56;;;;;;;86.53;33.65;;;;;;;-1.62;100.00;102303.38;6232380;23;20028;-83
2023/01/26 08:40:21;;;;;;;85.18;34.13;;;;;;;-1.49;100.00;102320.19;6225281;23;20012;-83
2023/01/26 08:42:46;;;;;;;85.57;32.92;;;;;;;-1.45;100.00;102323.75;6215734;23;20008;-81
2023/01/26 08:45:11;;;;;;;85.70;34.13;;;;;;;-1.43;100.00;102322.03;6214911;23;20058;-82
2023/01/26 08:47:37;;;;;;;82.30;33.00;;;;;;;-1.46;100.00;102312.44;6216977;23;20005;-84
2023/01/26 08:50:02;;;;;;;85.13;33.75;;;;;;;-1.42;100.00;102318.56;6214714;23;19996;-81
2023/01/26 08:52:28;;;;;;;87.30;34.67;;;;;;;-1.40;100.00;102312.53;6212375;23;20078;-82
2023/01/26 08:54:53;;;;;;;84.07;34.05;;;;;;;-1.35;100.00;102321.34;6211086;23;20035;-83
2023/01/26 08:57:18;;;;;;;81.00;34.10;;;;;;;-1.29;100.00;102324.13;6184077;23;20024;-83
2023/01/26 08:59:44;;;;;;;82.07;33.50;;;;;;;-1.30;100.00;102313.63;6211787;23;20422;-82
2023/01/26 09:02:09;;;;;;;81.07;32.67;;;;;;;-1.28;100.00;102322.38;6210671;23;20013;-84
2023/01/26 09:04:36;;;;;;;81.80;32.25;;;;;;;-1.25;100.00;102332.91;6208290;23;20004;-83
2023/01/26 09:07:01;;;;;;;79.53;32.28;;;;;;;-1.33;100.00;102326.63;6207298;23;20449;-83
2023/01/26 09:09:26;;;;;;;78.30;31.27;;;;;;;-1.24;100.00;102332.06;6206410;23;20001;-83
2023/01/26 09:11:55;;;;;;;91.32;33.67;;;;;;;-1.22;100.00;102327.72;6179877;23;20401;-81
2023/01/26 09:14:21;;;;;;;82.25;33.33;;;;;;;-1.32;100.00;102310.09;6205982;23;20009;-82
2023/01/26 09:16:46;;;;;;;79.70;33.40;;;;;;;-1.14;100.00;102318.31;6207340;23;20027;-82
2023/01/26 09:19:12;;;;;;;81.20;32.40;;;;;;;-1.15;100.00;102331.34;6206228;23;20001;-81
2023/01/26 09:21:38;;;;;;;84.25;32.33;;;;;;;-1.16;100.00;102317.41;6206162;23;20632;-81
2023/01/26 09:24:03;;;;;;;81.55;32.85;;;;;;;-1.08;100.00;102317.59;6206033;23;20015;-82
2023/01/26 09:26:30;;;;;;;86.75;35.10;;;;;;;-1.02;100.00;102322.91;6207093;23;20091;-82
2023/01/26 09:28:55;;;;;;;85.20;33.38;;;;;;;-0.95;100.00;102322.19;6207508;23;20005;-82
2023/01/26 09:31:20;;;;;;;87.05;33.67;;;;;;;-0.92;100.00;102327.50;6206441;23;20034;-82
2023/01/26 09:33:48;;;;;;;83.80;34.70;;;;;;;-0.88;100.00;102325.78;6206162;23;20012;-82
2023/01/26 09:36:13;;;;;;;86.80;35.35;;;;;;;-0.87;100.00;102324.97;6207830;23;20001;-82
2023/01/26 09:38:39;;;;;;;80.65;34.05;;;;;;;-0.87;100.00;102323.25;6209093;23;20013;-82
2023/01/26 09:41:35;;;;;;;89.65;32.90;;;;;;;-0.80;100.00;102322.47;6209318;23;20009;-82
2023/01/26 09:44:06;;;;;;;88.60;32.53;;;;;;;-0.82;100.00;102329.44;6225915;23;20061;-82
2023/01/26 09:47:02;;;;;;;93.22;33.85;;;;;;;-0.78;100.00;102346.06;6233848;23;20008;-80
2023/01/26 09:49:40;;;;;;;92.50;35.15;;;;;;;-0.81;100.00;102346.88;6228285;23;20000;-82
2023/01/26 09:52:19;;;;;;;87.60;33.35;;;;;;;-0.76;100.00;102333.88;6207763;23;20035;-83
2023/01/26 09:54:51;;;;;;;89.05;34.80;;;;;;;-0.73;100.00;102344.41;6207591;23;20004;-82
2023/01/26 09:57:23;;;;;;;89.22;34.50;;;;;;;-0.70;100.00;102336.63;6209426;23;20005;-82
2023/01/26 09:59:52;;;;;;;97.45;34.95;;;;;;;-0.70;100.00;102336.63;6210601;23;20018;-82
2023/01/26 10:02:55;;;;;;;93.18;35.05;;;;;;;-0.63;100.00;102328.03;6209938;23;20000;-82
2023/01/26 10:05:46;;;;;;;95.30;34.25;;;;;;;-0.61;100.00;102333.31;6233102;23;20005;-82
2023/01/26 10:08:14;;;;;;;90.38;33.28;;;;;;;-0.63;100.00;102333.25;6234458;23;20056;-82
2023/01/26 10:10:45;;;;;;;101.40;34.05;;;;;;;-0.65;100.00;102323.66;6233631;23;20008;-81
2023/01/26 10:13:16;;;;;;;95.70;34.97;;;;;;;-0.57;100.00;102332.53;6226532;23;20000;-82
2023/01/26 10:15:46;;;;;;;113.68;37.72;;;;;;;-0.61;100.00;102336.81;6206887;23;20012;-82
2023/01/26 10:18:18;;;;;;;102.43;37.03;;;;;;;-0.58;100.00;102331.66;6206699;23;20139;-83
2023/01/26 10:20:53;;;;;;;96.78;37.00;;;;;;;-0.54;100.00;102337.81;6205250;23;20008;-83
2023/01/26 10:23:25;;;;;;;104.28;36.83;;;;;;;-0.52;100.00;102331.75;6208549;23;20497;-84
2023/01/26 10:25:53;;;;;;;93.60;35.47;;;;;;;-0.48;100.00;102334.41;6209257;23;20529;-82
2023/01/26 10:28:25;;;;;;;90.78;34.75;;;;;;;-0.43;100.00;102324.91;6208576;23;20329;-82
2023/01/26 10:30:50;;;;;;;112.35;37.33;;;;;;;-0.42;100.00;102326.66;6209366;23;20009;-84
2023/01/26 10:33:18;;;;;;;105.72;39.22;;;;;;;-0.35;100.00;102333.78;6208509;23;20000;-82
2023/01/26 10:35:44;;;;;;;104.35;37.95;;;;;;;-0.34;100.00;102332.91;6208278;23;20058;-82
2023/01/26 10:38:40;;;;;;;117.13;39.70;;;;;;;-0.23;100.00;102334.00;6227340;23;19993;-83
2023/01/26 10:41:21;;;;;;;123.47;38.67;;;;;;;-0.31;100.00;102330.38;6235616;23;19996;-83
2023/01/26 10:44:02;;;;;;;115.78;37.50;;;;;;;-0.23;100.00;102327.88;6234498;23;20039;-83
2023/01/26 10:46:33;;;;;;;100.90;36.17;;;;;;;-0.17;100.00;102339.31;6231935;23;20011;-83
2023/01/26 10:49:02;;;;;;;116.82;39.08;;;;;;;-0.15;100.00;102319.31;6232992;23;19997;-83
2023/01/26 10:51:32;;;;;;;109.82;37.10;;;;;;;-0.10;100.00;102329.84;6216353;23;20011;-83
2023/01/26 10:54:18;;;;;;;110.72;38.75;;;;;;;-0.04;100.00;102333.47;6210552;23;20319;-83
2023/01/26 10:57:13;;;;;;;135.30;41.65;;;;;;;-0.01;100.00;102340.47;6212524;23;20011;-82
2023/01/26 10:59:47;;;;;;;125.75;39.55;;;;;;;-0.05;100.00;102346.50;6210499;23;20063;-83
2023/01/26 11:02:20;;;;;;;118.95;39.60;;;;;;;-0.06;100.00;102337.78;6209843;23;20015;-84
2023/01/26 11:05:07;;;;;;;119.05;40.55;;;;;;;0.06;100.00;102341.47;6209659;23;20074;-82
2023/01/26 11:07:39;;;;;;;137.25;42.33;;;;;;;0.06;100.00;102344.97;6209280;23;20366;-84
2023/01/26 11:10:32;;;;;;;126.15;42.15;;;;;;;0.10;100.00;102331.06;6208549;23;20016;-83
2023/01/26 11:13:16;;;;;;;146.40;45.00;;;;;;;0.13;100.00;102332.88;6207826;23;20001;-81
2023/01/26 11:15:43;;;;;;;;;;;;;;;0.27;100.00;102325.22;6207094;23;20020;-83
2023/01/26 11:18:26;;;;;;;123.35;41.80;;;;;;;0.32;100.00;102329.66;6207937;23;20182;-83
2023/01/26 11:21:26;;;;;;;139.25;45.83;;;;;;;0.44;100.00;102324.59;6207410;23;20011;-83
2023/01/26 11:23:59;;;;;;;146.43;43.20;;;;;;;0.56;100.00;102321.28;6207373;23;20003;-82
2023/01/26 11:26:36;;;;;;;138.95;43.33;;;;;;;0.67;100.00;102318.78;6206128;23;20012;-83
2023/01/26 11:29:38;;;;;;;130.65;42.38;;;;;;;0.80;100.00;102323.34;6207737;23;20054;-83
2023/01/26 11:32:44;;;;;;;121.88;39.85;;;;;;;0.88;100.00;102323.44;6208470;23;20028;-83
2023/01/26 11:35:27;;;;;;;127.43;40.55;;;;;;;0.88;100.00;102319.09;6206224;23;20023;-84
2023/01/26 11:38:20;;;;;;;116.25;40.42;;;;;;;0.86;100.00;102323.41;6179206;23;20015;-83
2023/01/26 11:41:07;;;;;;;115.57;39.30;;;;;;;0.86;100.00;102322.53;6204933;23;20019;-82
2023/01/26 11:43:48;;;;;;;119.13;40.55;;;;;;;1.01;100.00;102324.50;6206549;23;20008;-83
2023/01/26 11:46:31;;;;;;;111.32;40.40;;;;;;;1.15;100.00;102325.53;6206109;23;20004;-83
2023/01/26 11:48:57;;;;;;;119.97;41.17;;;;;;;1.23;100.00;102316.88;6190691;23;20048;-82
2023/01/26 11:51:50;;;;;;;117.78;40.92;;;;;;;1.43;100.00;102322.34;6233522;23;20073;-81
2023/01/26 11:54:56;;;;;;;105.63;37.53;;;;;;;1.50;100.00;102307.53;6233134;23;20043;-82